Time;durP1;ratioP1;P1;durP2;ratioP2;P2;SDS_P1;SDS_P2;PMS_P1;PMS_P2;Temp;Humidity;BMP_temperature;BMP_pressure;BME280_temperature;BME280_humidity;BME280_pressure;Samples;Min_cycle;Max_cycle;Signal;HPM_P1;HPM_P2
2021/12/01 00:01:28;;;;;;;;;;;9.30;99.90;;;;;;5133331;27;20288;-53
2021/12/01 00:03:54;;;;;;;42.22;23.00;;;9.40;99.90;;;;;;5113252;27;20442;-55
2021/12/01 00:06:19;;;;;;;44.73;24.30;;;9.30;99.90;;;;;;5132358;27;20089;-54
2021/12/01 00:08:45;;;;;;;37.77;23.67;;;9.30;99.90;;;;;;5131657;27;20027;-53
2021/12/01 00:11:11;;;;;;;40.80;25.13;;;9.30;99.90;;;;;;5132129;27;20110;-54
2021/12/01 00:13:36;;;;;;;37.17;24.43;;;9.40;99.90;;;;;;5131869;27;20273;-55
2021/12/01 00:16:03;;;;;;;39.15;23.05;;;9.30;99.90;;;;;;5132136;27;20042;-52
2021/12/01 00:18:29;;;;;;;37.70;24.33;;;9.40;99.90;;;;;;5131201;27;20031;-53
2021/12/01 00:20:56;;;;;;;36.55;24.52;;;9.40;99.90;;;;;;5132907;27;20083;-54
2021/12/01 00:23:22;;;;;;;39.78;27.27;;;9.40;99.90;;;;;;5130801;27;20612;-55
2021/12/01 00:25:48;;;;;;;39.17;25.58;;;9.40;99.90;;;;;;5113779;27;20043;-54
2021/12/01 00:28:14;;;;;;;42.38;27.38;;;9.50;99.90;;;;;;5131347;27;20035;-55
2021/12/01 00:30:40;;;;;;;39.35;26.60;;;9.50;99.90;;;;;;5132284;27;20113;-54
2021/12/01 00:33:09;;;;;;;40.38;28.30;;;9.50;99.90;;;;;;5131321;27;20046;-53
2021/12/01 00:35:35;;;;;;;43.78;28.48;;;9.50;99.90;;;;;;5131513;27;20041;-54
2021/12/01 00:38:00;;;;;;;41.95;29.45;;;9.50;99.90;;;;;;5131745;27;20035;-55
2021/12/01 00:40:26;;;;;;;39.30;26.73;;;9.50;99.90;;;;;;5131127;27;20043;-55
2021/12/01 00:42:53;;;;;;;41.70;29.52;;;9.50;99.90;;;;;;5131951;27;20285;-55
2021/12/01 00:45:21;;;;;;;40.95;28.20;;;9.50;99.90;;;;;;5130883;27;20443;-54
2021/12/01 00:47:54;;;;;;;39.10;28.38;;;9.50;99.90;;;;;;5124396;27;20043;-54
2021/12/01 00:50:21;;;;;;;41.95;27.92;;;9.60;99.90;;;;;;5131669;27;20046;-55
2021/12/01 00:52:47;;;;;;;36.85;25.65;;;9.60;99.90;;;;;;5131023;27;20042;-54
2021/12/01 00:55:12;;;;;;;39.53;28.57;;;9.60;99.90;;;;;;5130962;27;20076;-54
2021/12/01 00:57:38;;;;;;;38.20;27.07;;;9.60;99.90;;;;;;5130947;27;20068;-56
2021/12/01 01:00:06;;;;;;;38.43;27.37;;;9.60;99.90;;;;;;5131033;27;20031;-54
2021/12/01 01:02:32;;;;;;;37.28;27.58;;;9.60;99.90;;;;;;5095438;27;20043;-55
2021/12/01 01:04:57;;;;;;;31.17;22.80;;;9.60;99.90;;;;;;5130547;27;20066;-55
2021/12/01 01:07:23;;;;;;;34.07;23.23;;;9.70;99.90;;;;;;5130776;27;20480;-55
2021/12/01 01:09:49;;;;;;;37.47;25.48;;;9.70;99.90;;;;;;5130622;27;20499;-55
2021/12/01 01:17:49;;;;;;;45.22;26.67;;;9.70;99.90;;;;;;5128869;27;20132;-55
2021/12/01 01:20:16;;;;;;;40.97;26.70;;;9.70;99.90;;;;;;5131276;27;20031;-52
2021/12/01 01:22:41;;;;;;;44.30;25.52;;;9.70;99.90;;;;;;5132021;27;20369;-53
2021/12/01 01:25:08;;;;;;;34.73;24.40;;;9.70;99.90;;;;;;5130635;27;20493;-54
2021/12/01 01:27:34;;;;;;;39.42;23.50;;;9.60;99.90;;;;;;5130552;27;20031;-55
2021/12/01 01:30:00;;;;;;;34.78;24.73;;;9.60;99.90;;;;;;5130603;27;20035;-55
2021/12/01 01:32:26;;;;;;;38.33;23.60;;;9.60;99.90;;;;;;5130405;27;20451;-54
2021/12/01 01:34:51;;;;;;;38.25;23.17;;;9.60;99.90;;;;;;5129321;27;20281;-54
2021/12/01 01:37:17;;;;;;;35.27;23.03;;;9.60;99.90;;;;;;5130624;27;20514;-54
2021/12/01 01:39:43;;;;;;;31.60;21.40;;;9.60;99.90;;;;;;5130058;27;20042;-52
2021/12/01 01:42:09;;;;;;;29.60;21.48;;;9.60;99.90;;;;;;5130554;27;20043;-55
2021/12/01 01:44:34;;;;;;;30.83;20.35;;;9.60;99.90;;;;;;5129798;27;20037;-54
2021/12/01 01:47:00;;;;;;;33.97;20.53;;;9.60;99.90;;;;;;5130311;27;20122;-54
2021/12/01 01:52:20;;;;;;;31.55;19.40;;;9.70;99.90;;;;;;5056369;28;20044;-54
2021/12/01 01:54:46;;;;;;;27.92;18.77;;;9.70;99.90;;;;;;5129866;27;20145;-53
2021/12/01 01:57:11;;;;;;;23.37;17.90;;;9.70;99.90;;;;;;5130306;27;20154;-53
2021/12/01 01:59:37;;;;;;;26.57;18.87;;;9.70;99.90;;;;;;5129534;27;20035;-53
2021/12/01 02:02:04;;;;;;;26.00;18.27;;;9.80;99.90;;;;;;5130310;27;20043;-55
2021/12/01 02:04:33;;;;;;;;;;;9.80;99.90;;;;;;5130032;28;20323;-53
2021/12/01 02:07:00;;;;;;;25.40;17.35;;;9.80;99.90;;;;;;5129998;28;20006;-55
2021/12/01 02:09:26;;;;;;;24.73;17.90;;;9.80;99.90;;;;;;5129877;28;20103;-54
2021/12/01 02:11:56;;;;;;;25.88;16.15;;;9.80;99.90;;;;;;5130691;28;20480;-53
2021/12/01 02:14:22;;;;;;;24.27;17.05;;;9.80;99.90;;;;;;5129665;28;20071;-53
2021/12/01 02:16:49;;;;;;;26.73;17.88;;;9.80;99.90;;;;;;5130174;28;20096;-54
2021/12/01 02:19:15;;;;;;;20.05;15.70;;;9.80;99.90;;;;;;5129572;28;20031;-55
2021/12/01 02:21:41;;;;;;;20.38;14.93;;;9.80;99.90;;;;;;5130280;28;20050;-55
2021/12/01 02:24:11;;;;;;;22.23;15.25;;;9.80;99.90;;;;;;5129255;28;20468;-54
2021/12/01 02:26:41;;;;;;;21.98;14.55;;;9.80;99.90;;;;;;5129812;28;20058;-53
2021/12/01 02:29:11;;;;;;;19.48;12.52;;;9.80;99.90;;;;;;5129200;28;20087;-55
2021/12/01 02:31:38;;;;;;;20.27;13.35;;;9.80;99.90;;;;;;5129893;28;20069;-53
2021/12/01 02:34:07;;;;;;;16.73;11.27;;;9.80;99.90;;;;;;5129561;28;20489;-55
2021/12/01 02:36:34;;;;;;;16.77;12.65;;;9.80;99.90;;;;;;5129855;28;20328;-55
2021/12/01 02:39:02;;;;;;;14.90;11.52;;;9.80;99.90;;;;;;5130066;27;20118;-55
2021/12/01 02:41:30;;;;;;;12.70;9.60;;;9.80;99.90;;;;;;5133921;27;20067;-55
2021/12/01 02:43:56;;;;;;;14.32;9.73;;;9.80;99.90;;;;;;5133377;27;20100;-55
2021/12/01 02:46:22;;;;;;;13.90;8.55;;;9.80;99.90;;;;;;5134180;27;20062;-55
2021/12/01 02:48:48;;;;;;;12.35;9.27;;;9.80;99.90;;;;;;5132822;27;20058;-54
2021/12/01 02:51:14;;;;;;;11.85;8.50;;;9.80;99.90;;;;;;5134788;27;20584;-55
2021/12/01 02:53:40;;;;;;;7.15;6.22;;;9.80;99.90;;;;;;5132574;27;20031;-54
2021/12/01 02:56:08;;;;;;;9.23;6.88;;;9.80;99.90;;;;;;5116425;27;20031;-55
2021/12/01 02:58:40;;;;;;;8.13;6.38;;;9.80;99.90;;;;;;5132811;27;20084;-55
2021/12/01 03:01:09;;;;;;;6.32;5.20;;;9.80;99.90;;;;;;5134098;27;20110;-55
2021/12/01 03:03:35;;;;;;;6.70;5.25;;;9.90;99.90;;;;;;5132333;27;20031;-54
2021/12/01 03:06:02;;;;;;;4.72;4.10;;;9.90;99.90;;;;;;5134151;27;20472;-54
2021/12/01 03:08:29;;;;;;;5.15;4.70;;;9.90;99.90;;;;;;5132822;27;20528;-54
2021/12/01 03:10:55;;;;;;;4.47;4.07;;;9.90;99.90;;;;;;5133444;27;20058;-55
2021/12/01 03:13:22;;;;;;;2.97;2.78;;;10.00;99.90;;;;;;5133101;27;20039;-55
2021/12/01 03:15:48;;;;;;;5.00;3.92;;;10.00;99.90;;;;;;5133275;27;20035;-54
2021/12/01 03:18:15;;;;;;;5.35;4.65;;;10.00;99.90;;;;;;5133168;27;20046;-55
2021/12/01 03:20:44;;;;;;;7.07;4.68;;;10.10;99.90;;;;;;5132940;27;20039;-53
2021/12/01 03:23:10;;;;;;;5.65;5.00;;;10.00;99.90;;;;;;5133030;27;20412;-54
2021/12/01 03:25:36;;;;;;;5.75;5.15;;;10.00;99.90;;;;;;5133799;27;20034;-53
2021/12/01 03:28:03;;;;;;;6.10;5.05;;;10.00;99.90;;;;;;5132184;27;20499;-55
2021/12/01 03:30:34;;;;;;;4.90;4.43;;;10.00;99.90;;;;;;5133410;27;20129;-53
2021/12/01 03:33:01;;;;;;;5.20;4.70;;;10.00;99.90;;;;;;5131735;27;20067;-55
2021/12/01 03:35:27;;;;;;;6.50;5.55;;;10.00;99.90;;;;;;5132063;27;20039;-53
2021/12/01 03:37:52;;;;;;;5.40;4.90;;;10.00;99.90;;;;;;5132359;27;20031;-54
2021/12/01 03:40:18;;;;;;;5.35;4.85;;;10.00;99.90;;;;;;5133275;27;20545;-53
2021/12/01 03:42:46;;;;;;;5.77;4.77;;;10.00;99.90;;;;;;5132862;27;20488;-52
2021/12/01 03:45:13;;;;;;;5.18;4.68;;;10.00;99.90;;;;;;5132142;27;20035;-53
2021/12/01 03:47:39;;;;;;;5.25;4.85;;;10.00;99.90;;;;;;5132784;27;20118;-55
2021/12/01 03:50:05;;;;;;;7.65;5.88;;;10.00;99.90;;;;;;5131634;27;20560;-54
2021/12/01 03:52:32;;;;;;;5.00;4.35;;;10.00;99.90;;;;;;5132227;27;20441;-53
2021/12/01 03:54:58;;;;;;;;;;;10.00;99.90;;;;;;5114244;27;20039;-52
2021/12/01 03:57:23;;;;;;;5.60;4.18;;;10.00;99.90;;;;;;5132781;27;19930;-55
2021/12/01 03:59:49;;;;;;;4.10;3.78;;;10.00;99.90;;;;;;5132428;27;20039;-54
2021/12/01 04:02:16;;;;;;;4.30;3.92;;;10.00;99.90;;;;;;5113851;27;20110;-55
2021/12/01 04:04:41;;;;;;;4.22;3.83;;;10.00;99.90;;;;;;5131842;27;21162;-54
2021/12/01 04:07:07;;;;;;;3.78;3.47;;;10.00;99.90;;;;;;5132413;27;20118;-54
2021/12/01 04:09:33;;;;;;;3.95;3.60;;;10.00;99.90;;;;;;5131957;27;20030;-56
2021/12/01 04:12:00;;;;;;;4.55;3.05;;;10.00;99.90;;;;;;5132439;27;20439;-54
2021/12/01 04:14:25;;;;;;;;;;;10.00;99.90;;;;;;5132154;27;20039;-54
2021/12/01 04:16:51;;;;;;;2.30;2.10;;;10.00;99.90;;;;;;5132290;27;20391;-56
2021/12/01 04:19:17;;;;;;;3.42;2.33;;;9.90;99.90;;;;;;5131262;27;20043;-54
2021/12/01 04:21:44;;;;;;;2.97;2.75;;;9.90;99.90;;;;;;5132972;27;20098;-55
2021/12/01 04:24:10;;;;;;;2.25;2.05;;;9.90;99.90;;;;;;5131600;27;20039;-55
2021/12/01 04:26:36;;;;;;;2.72;2.20;;;9.80;99.90;;;;;;5132426;27;20071;-55
2021/12/01 04:29:03;;;;;;;2.35;2.03;;;9.80;99.90;;;;;;5131093;27;20043;-53
2021/12/01 04:31:32;;;;;;;1.85;1.75;;;9.80;99.90;;;;;;5132590;27;20416;-55
2021/12/01 04:34:00;;;;;;;2.00;1.77;;;9.70;99.90;;;;;;5131458;27;20434;-55
2021/12/01 04:36:29;;;;;;;3.78;1.70;;;9.70;99.90;;;;;;5132105;27;20031;-54
2021/12/01 04:38:56;;;;;;;1.30;1.20;;;9.70;99.90;;;;;;5131218;27;20430;-55
2021/12/01 04:41:23;;;;;;;1.40;1.30;;;9.70;99.90;;;;;;5131710;27;20105;-55
2021/12/01 04:43:49;;;;;;;;;;;9.60;99.90;;;;;;5131522;27;20499;-55
2021/12/01 04:46:19;;;;;;;0.90;0.80;;;9.60;99.90;;;;;;5131106;27;19960;-55
2021/12/01 04:48:47;;;;;;;2.55;1.10;;;9.60;99.90;;;;;;5131243;27;20050;-54
2021/12/01 04:51:14;;;;;;;1.05;0.82;;;9.60;99.90;;;;;;5131161;27;20031;-54
2021/12/01 04:53:39;;;;;;;0.70;0.70;;;9.60;99.90;;;;;;5131090;27;20461;-55
2021/12/01 04:56:06;;;;;;;0.80;0.80;;;9.50;99.90;;;;;;5131148;27;20118;-53
2021/12/01 04:58:33;;;;;;;1.00;0.90;;;9.50;99.90;;;;;;5130887;27;20074;-54
2021/12/01 05:01:00;;;;;;;1.05;0.95;;;9.50;99.90;;;;;;5131453;27;20060;-55
2021/12/01 05:03:25;;;;;;;0.70;0.60;;;9.50;99.90;;;;;;5130262;27;20035;-55
2021/12/01 05:05:51;;;;;;;1.27;1.15;;;9.50;99.90;;;;;;5131176;27;20065;-55
2021/12/01 05:08:19;;;;;;;2.47;0.80;;;9.50;99.90;;;;;;5130656;27;20031;-54
2021/12/01 05:10:45;;;;;;;1.52;1.30;;;9.50;99.90;;;;;;5131819;27;20391;-55
2021/12/01 05:13:11;;;;;;;1.95;0.75;;;9.40;99.90;;;;;;5129861;27;20039;-55
2021/12/01 05:15:37;;;;;;;1.33;1.23;;;9.40;99.90;;;;;;5131320;27;20043;-54
2021/12/01 05:18:03;;;;;;;1.27;1.17;;;9.40;99.90;;;;;;5130378;27;20042;-55
2021/12/01 05:20:29;;;;;;;1.40;1.30;;;9.30;99.90;;;;;;5131172;27;20035;-55
2021/12/01 05:22:54;;;;;;;3.10;1.98;;;9.30;99.90;;;;;;5112419;27;20041;-55
2021/12/01 05:25:20;;;;;;;2.93;1.90;;;9.30;99.90;;;;;;5130224;27;20039;-55
2021/12/01 05:27:46;;;;;;;2.33;1.52;;;9.30;99.90;;;;;;5130235;27;20403;-52
2021/12/01 05:30:12;;;;;;;1.70;1.60;;;9.20;99.90;;;;;;5130733;27;20551;-55
2021/12/01 05:32:37;;;;;;;1.80;1.70;;;9.20;99.90;;;;;;5131088;27;20442;-52
2021/12/01 05:35:04;;;;;;;2.40;1.90;;;9.20;99.90;;;;;;5130079;27;20043;-55
2021/12/01 05:37:29;;;;;;;1.85;1.75;;;9.20;99.90;;;;;;5130700;27;20483;-55
2021/12/01 05:39:56;;;;;;;1.50;1.40;;;9.10;99.90;;;;;;5111926;27;20045;-54
2021/12/01 05:42:21;;;;;;;;;;;9.10;99.90;;;;;;5119657;27;20035;-53
2021/12/01 05:44:47;;;;;;;1.60;1.50;;;9.10;99.90;;;;;;5130034;27;19950;-54
2021/12/01 05:47:13;;;;;;;2.10;1.97;;;9.10;99.90;;;;;;5130788;27;20038;-52
2021/12/01 05:49:44;;;;;;;2.60;2.40;;;9.00;99.90;;;;;;5129982;27;20400;-52
2021/12/01 05:52:12;;;;;;;2.08;1.98;;;8.90;99.90;;;;;;5130959;27;20397;-55
2021/12/01 05:54:38;;;;;;;2.20;2.00;;;9.00;99.90;;;;;;5130254;27;20078;-55
2021/12/01 05:57:04;;;;;;;3.97;2.17;;;9.00;99.90;;;;;;5130776;27;20074;-53
2021/12/01 05:59:30;;;;;;;2.22;1.90;;;8.90;99.90;;;;;;5130100;27;20305;-55
2021/12/01 06:01:55;;;;;;;2.40;2.20;;;8.90;99.90;;;;;;5130821;28;20506;-55
2021/12/01 06:04:24;;;;;;;2.60;2.40;;;8.90;99.90;;;;;;5129511;28;20035;-51
2021/12/01 06:06:50;;;;;;;2.42;2.22;;;8.90;99.90;;;;;;5130707;28;20095;-55
2021/12/01 06:09:15;;;;;;;2.45;2.25;;;8.90;99.90;;;;;;5129690;28;20503;-54
2021/12/01 06:11:41;;;;;;;2.67;2.47;;;8.90;99.90;;;;;;5130047;28;20039;-55
2021/12/01 06:14:08;;;;;;;2.90;2.17;;;8.90;99.90;;;;;;5130724;27;20472;-55
2021/12/01 06:16:34;;;;;;;2.25;2.05;;;8.80;99.90;;;;;;5134485;27;20067;-52
2021/12/01 06:19:00;;;;;;;2.17;1.87;;;8.80;99.90;;;;;;5134210;27;20078;-53
2021/12/01 06:21:25;;;;;;;2.13;2.03;;;8.80;99.90;;;;;;5134623;27;20679;-55
2021/12/01 06:23:51;;;;;;;2.78;2.47;;;8.80;99.90;;;;;;5133968;27;20046;-53
2021/12/01 06:26:17;;;;;;;2.23;2.13;;;8.80;99.90;;;;;;5134085;27;20031;-55
2021/12/01 06:28:42;;;;;;;2.80;2.60;;;8.80;99.90;;;;;;5133885;27;20118;-53
2021/12/01 06:31:08;;;;;;;2.73;2.50;;;8.80;99.90;;;;;;5134531;27;20038;-55
2021/12/01 06:33:34;;;;;;;2.80;2.58;;;8.80;99.90;;;;;;5133363;27;20108;-54
2021/12/01 06:35:59;;;;;;;2.78;2.58;;;8.80;99.90;;;;;;5104028;27;20484;-55
2021/12/01 06:38:25;;;;;;;2.50;2.30;;;8.70;99.90;;;;;;5133813;27;20034;-55
2021/12/01 06:40:51;;;;;;;2.40;2.20;;;8.80;99.90;;;;;;5133687;27;20031;-56
2021/12/01 06:43:17;;;;;;;2.07;1.97;;;8.70;99.90;;;;;;5115019;27;20286;-55
2021/12/01 06:45:42;;;;;;;2.63;2.42;;;8.70;99.90;;;;;;5134370;27;20288;-54
2021/12/01 06:48:08;;;;;;;2.97;2.78;;;8.70;99.90;;;;;;5133639;27;20035;-55
2021/12/01 06:50:34;;;;;;;2.60;2.40;;;8.70;99.90;;;;;;5133987;27;20031;-55
2021/12/01 06:52:59;;;;;;;1.98;1.88;;;8.70;99.90;;;;;;5134079;27;20068;-55
2021/12/01 06:55:25;;;;;;;3.77;1.27;;;8.70;99.90;;;;;;5133338;27;20075;-54
2021/12/01 06:57:51;;;;;;;1.65;1.55;;;8.70;99.90;;;;;;5134030;27;20314;-55
2021/12/01 07:00:19;;;;;;;3.78;2.65;;;8.70;99.90;;;;;;5134407;27;20441;-55
2021/12/01 07:02:45;;;;;;;1.85;1.75;;;8.60;99.90;;;;;;5134423;27;20109;-54
2021/12/01 07:05:12;;;;;;;2.53;2.33;;;8.70;99.90;;;;;;5133498;27;20126;-54
2021/12/01 07:07:38;;;;;;;2.13;2.03;;;8.60;99.90;;;;;;5131326;27;20035;-55
2021/12/01 07:10:07;;;;;;;2.38;2.00;;;8.70;99.90;;;;;;5132257;27;20103;-54
2021/12/01 07:12:32;;;;;;;2.22;2.08;;;8.60;99.90;;;;;;5133642;27;20114;-56
2021/12/01 07:14:58;;;;;;;2.17;2.07;;;8.60;99.90;;;;;;5133323;27;20127;-55
2021/12/01 07:17:23;;;;;;;1.70;1.60;;;8.60;99.90;;;;;;5133322;27;20033;-55
2021/12/01 07:19:49;;;;;;;2.00;1.90;;;8.60;99.90;;;;;;5133574;27;20084;-55
2021/12/01 07:22:16;;;;;;;3.53;2.07;;;8.60;99.90;;;;;;5134422;27;20039;-55
2021/12/01 07:24:42;;;;;;;;;;;8.60;99.90;;;;;;5133457;27;20292;-55
2021/12/01 07:27:07;;;;;;;2.15;1.95;;;8.60;99.90;;;;;;5133043;27;19923;-54
2021/12/01 07:29:35;;;;;;;1.63;1.52;;;8.60;99.90;;;;;;5133751;27;20031;-53
2021/12/01 07:32:01;;;;;;;1.67;1.58;;;8.60;99.90;;;;;;5133853;27;20035;-53
2021/12/01 07:34:27;;;;;;;1.98;1.88;;;8.60;99.90;;;;;;5132868;27;20500;-55
2021/12/01 07:36:52;;;;;;;1.30;1.20;;;8.60;99.90;;;;;;5133340;27;20046;-55
2021/12/01 07:39:19;;;;;;;1.85;1.75;;;8.60;99.90;;;;;;5132705;27;20057;-55
2021/12/01 07:41:45;;;;;;;1.65;1.48;;;8.60;99.90;;;;;;5133837;27;20046;-55
2021/12/01 07:44:11;;;;;;;1.77;1.20;;;8.60;99.90;;;;;;5132722;27;20461;-52
2021/12/01 07:46:37;;;;;;;1.67;1.30;;;8.60;99.90;;;;;;5133459;27;20035;-53
2021/12/01 07:49:03;;;;;;;1.73;1.63;;;8.60;99.90;;;;;;5132813;27;20092;-55
2021/12/01 07:51:28;;;;;;;1.48;1.38;;;8.60;99.90;;;;;;5132901;27;20031;-55
2021/12/01 07:53:55;;;;;;;1.87;1.40;;;8.60;99.90;;;;;;5133053;27;20492;-55
2021/12/01 07:56:21;;;;;;;2.40;1.48;;;8.60;99.90;;;;;;5132838;27;20078;-52
2021/12/01 07:58:46;;;;;;;2.17;2.08;;;8.60;99.90;;;;;;5132350;27;20071;-52
2021/12/01 08:01:12;;;;;;;1.70;1.60;;;8.60;99.90;;;;;;5132662;27;20106;-54
2021/12/01 08:03:37;;;;;;;1.10;1.00;;;8.60;99.90;;;;;;5132311;27;20045;-54
2021/12/01 08:06:03;;;;;;;1.30;1.20;;;8.60;99.90;;;;;;5132542;27;20027;-53
2021/12/01 08:08:29;;;;;;;1.57;1.13;;;8.70;99.90;;;;;;5131699;27;20060;-54
2021/12/01 08:10:55;;;;;;;4.47;1.05;;;8.70;99.90;;;;;;5132081;27;20530;-54
2021/12/01 08:13:21;;;;;;;1.52;1.42;;;8.70;99.90;;;;;;5132229;27;20033;-52
2021/12/01 08:15:47;;;;;;;1.00;1.00;;;8.70;99.90;;;;;;5132713;27;20035;-55
2021/12/01 08:18:14;;;;;;;;;;;8.70;99.90;;;;;;5132522;27;20138;-55
2021/12/01 08:20:39;;;;;;;1.52;1.42;;;8.70;99.90;;;;;;5114121;27;19935;-55
2021/12/01 08:23:05;;;;;;;2.93;1.40;;;8.70;99.90;;;;;;5131663;27;20065;-54
2021/12/01 08:25:30;;;;;;;2.00;1.30;;;8.80;99.90;;;;;;5127418;27;20089;-51
2021/12/01 08:27:56;;;;;;;1.83;1.20;;;8.80;99.90;;;;;;5131981;27;20281;-56
2021/12/01 08:30:22;;;;;;;1.38;1.20;;;8.80;99.90;;;;;;5131963;27;20488;-56
2021/12/01 08:32:47;;;;;;;1.23;1.13;;;8.90;99.90;;;;;;5127817;27;20531;-54
2021/12/01 08:35:15;;;;;;;1.00;1.00;;;8.90;99.90;;;;;;5113186;27;20047;-55
2021/12/01 08:37:42;;;;;;;1.48;1.38;;;8.90;99.90;;;;;;5131065;27;20031;-56
2021/12/01 08:40:09;;;;;;;1.45;1.35;;;9.00;99.90;;;;;;5132024;27;20068;-54
2021/12/01 08:42:34;;;;;;;1.35;1.17;;;9.00;99.90;;;;;;5132071;27;20039;-55
2021/12/01 08:45:01;;;;;;;1.63;1.50;;;9.00;99.90;;;;;;5131455;27;20047;-56
2021/12/01 08:47:29;;;;;;;1.70;1.60;;;9.10;99.90;;;;;;5131501;27;20407;-56
2021/12/01 08:49:55;;;;;;;3.00;1.75;;;9.10;99.90;;;;;;5130026;27;20066;-55
2021/12/01 08:52:22;;;;;;;1.83;1.67;;;9.10;99.90;;;;;;5132116;27;20067;-56
2021/12/01 08:54:48;;;;;;;3.83;1.85;;;9.20;99.90;;;;;;5127245;27;20284;-53
2021/12/01 08:57:14;;;;;;;6.22;2.75;;;9.20;99.90;;;;;;5131230;27;20110;-53
2021/12/01 08:59:40;;;;;;;3.83;2.40;;;9.20;99.90;;;;;;5131148;27;20067;-54
2021/12/01 09:02:06;;;;;;;2.58;2.38;;;9.20;99.90;;;;;;5131024;27;20035;-54
2021/12/01 09:04:32;;;;;;;2.88;2.33;;;9.20;99.90;;;;;;5130247;27;20046;-55
2021/12/01 09:06:57;;;;;;;3.42;2.63;;;9.20;99.90;;;;;;5131933;27;20023;-55
2021/12/01 09:09:23;;;;;;;5.93;3.00;;;9.20;99.90;;;;;;5131012;27;20034;-55
2021/12/01 09:11:52;;;;;;;4.20;3.10;;;9.20;99.90;;;;;;5132039;27;20035;-55
2021/12/01 09:14:19;;;;;;;4.32;3.53;;;9.20;99.90;;;;;;5130489;27;20133;-54
2021/12/01 09:16:46;;;;;;;4.40;3.70;;;9.20;99.90;;;;;;5131394;27;20073;-55
2021/12/01 09:19:12;;;;;;;3.38;2.50;;;9.20;99.90;;;;;;5129563;27;20038;-55
2021/12/01 09:21:38;;;;;;;2.80;2.50;;;9.20;99.90;;;;;;5131625;27;20046;-53
2021/12/01 09:24:05;;;;;;;5.03;1.83;;;9.30;99.90;;;;;;5129822;27;20046;-55
2021/12/01 09:26:31;;;;;;;;;;;9.30;99.90;;;;;;5132017;27;20471;-54
2021/12/01 09:28:56;;;;;;;3.35;1.25;;;9.30;99.90;;;;;;5130968;27;19915;-54
2021/12/01 09:31:22;;;;;;;3.23;0.80;;;9.40;99.90;;;;;;5131324;27;20042;-55
2021/12/01 09:33:48;;;;;;;1.98;0.80;;;9.40;99.90;;;;;;5130395;27;20437;-54
2021/12/01 09:36:14;;;;;;;4.87;1.37;;;9.40;99.90;;;;;;5130893;27;20039;-56
2021/12/01 09:38:41;;;;;;;4.55;0.68;;;9.40;99.90;;;;;;5129734;27;20273;-55
2021/12/01 09:41:07;;;;;;;5.35;1.00;;;9.40;99.90;;;;;;5131107;27;20368;-54
2021/12/01 09:43:33;;;;;;;5.88;0.80;;;9.40;99.90;;;;;;5128875;27;20424;-53
2021/12/01 09:46:03;;;;;;;8.73;0.90;;;9.30;99.90;;;;;;5129867;27;20066;-54
2021/12/01 09:48:30;;;;;;;7.60;1.77;;;9.40;99.90;;;;;;5126726;27;20277;-52
2021/12/01 09:50:55;;;;;;;;;;;9.40;99.90;;;;;;5130863;27;20110;-50
2021/12/01 09:53:21;;;;;;;8.55;0.80;;;9.40;99.90;;;;;;5129108;27;20463;-54
2021/12/01 09:55:46;;;;;;;3.93;0.70;;;9.70;99.90;;;;;;5126786;27;20031;-53
2021/12/01 09:58:16;;;;;;;8.63;0.70;;;10.00;99.90;;;;;;5129724;27;20047;-52
2021/12/01 10:01:05;;;;;;;5.35;0.75;;;10.10;99.90;;;;;;5130292;27;20035;-56
2021/12/01 10:03:31;;;;;;;9.90;0.82;;;10.10;99.90;;;;;;5129988;27;20045;-56
2021/12/01 10:06:04;;;;;;;5.93;1.33;;;10.00;99.90;;;;;;5130388;28;20123;-56
2021/12/01 10:08:42;;;;;;;4.63;0.45;;;10.00;99.90;;;;;;5126101;28;20379;-55
2021/12/01 10:11:16;;;;;;;7.03;0.80;;;9.90;99.90;;;;;;5129820;28;20045;-56
2021/12/01 10:13:46;;;;;;;9.20;1.35;;;9.80;99.90;;;;;;5130081;28;20088;-56
2021/12/01 10:16:14;;;;;;;6.65;0.73;;;9.70;99.90;;;;;;5130752;28;20035;-56
2021/12/01 10:18:42;;;;;;;6.97;1.45;;;9.70;99.90;;;;;;5130262;28;20027;-54
2021/12/01 10:21:15;;;;;;;5.60;0.73;;;9.60;99.90;;;;;;5130393;28;20477;-56
2021/12/01 10:24:03;;;;;;;5.85;0.70;;;9.60;99.90;;;;;;5129904;28;20037;-56
2021/12/01 10:26:32;;;;;;;8.95;0.40;;;9.50;99.90;;;;;;5115907;28;20401;-56
2021/12/01 10:29:06;;;;;;;8.90;0.60;;;9.50;99.90;;;;;;5117635;28;20062;-55
2021/12/01 10:31:39;;;;;;;2.75;1.23;;;9.50;99.90;;;;;;5130761;28;20072;-54
2021/12/01 10:34:19;;;;;;;4.88;0.82;;;9.50;99.90;;;;;;5129158;28;20085;-55
2021/12/01 10:36:47;;;;;;;2.88;0.40;;;9.40;99.90;;;;;;5130486;28;20061;-56
2021/12/01 10:39:12;;;;;;;5.78;0.75;;;9.30;99.90;;;;;;5129484;28;20522;-56
2021/12/01 10:41:40;;;;;;;5.60;0.83;;;9.30;99.90;;;;;;5130326;28;20043;-56
2021/12/01 10:44:17;;;;;;;7.97;0.90;;;9.30;99.90;;;;;;5129372;28;20049;-56
2021/12/01 10:46:52;;;;;;;5.75;1.05;;;9.20;99.90;;;;;;5129475;28;20024;-56
2021/12/01 10:49:33;;;;;;;5.20;0.73;;;9.30;99.90;;;;;;5121674;28;20048;-56
2021/12/01 10:51:59;;;;;;;4.15;0.77;;;9.30;99.90;;;;;;5123290;28;20040;-56
2021/12/01 10:54:26;;;;;;;7.38;1.35;;;9.20;99.90;;;;;;5124975;28;20122;-55
2021/12/01 10:57:10;;;;;;;;;;;9.20;99.90;;;;;;5130364;28;20415;-56
2021/12/01 10:59:44;;;;;;;7.45;0.40;;;9.20;99.90;;;;;;5129597;27;19915;-56
2021/12/01 11:02:11;;;;;;;4.65;0.60;;;9.20;99.90;;;;;;5133728;27;20035;-56
2021/12/01 11:04:42;;;;;;;9.55;1.60;;;9.20;99.90;;;;;;5132556;27;20039;-55
2021/12/01 11:07:32;;;;;;;7.47;0.57;;;9.20;99.90;;;;;;5132446;27;20096;-55
2021/12/01 11:10:18;;;;;;;9.32;1.63;;;9.20;99.90;;;;;;5122676;27;20043;-56
2021/12/01 11:12:52;;;;;;;6.30;1.13;;;9.20;99.90;;;;;;5129605;27;20066;-55
2021/12/01 11:15:24;;;;;;;5.72;1.15;;;9.20;99.90;;;;;;5121042;27;20046;-56
2021/12/01 11:17:51;;;;;;;5.18;0.77;;;9.20;99.90;;;;;;5130799;27;20042;-56
2021/12/01 11:20:37;;;;;;;7.90;0.70;;;9.20;99.90;;;;;;5130941;27;20038;-55
2021/12/01 11:23:19;;;;;;;7.78;0.88;;;9.20;99.90;;;;;;5127884;27;20051;-55
2021/12/01 11:25:51;;;;;;;7.63;1.17;;;9.20;99.90;;;;;;5125797;27;20121;-56
2021/12/01 11:28:18;;;;;;;9.07;0.60;;;9.20;99.90;;;;;;5125580;27;20027;-55
2021/12/01 11:30:51;;;;;;;5.90;1.13;;;9.20;99.90;;;;;;5133664;27;20548;-56
2021/12/01 11:33:18;;;;;;;8.32;1.00;;;9.20;99.90;;;;;;5131867;27;20479;-56
2021/12/01 11:35:55;;;;;;;11.45;0.98;;;9.30;99.90;;;;;;5131027;27;20039;-55
2021/12/01 11:38:22;;;;;;;11.25;1.17;;;9.40;99.90;;;;;;5132922;27;20046;-54
2021/12/01 11:40:49;;;;;;;;;;;9.50;99.90;;;;;;5131591;27;20035;-56
2021/12/01 11:43:17;;;;;;;7.30;1.00;;;9.50;99.90;;;;;;5132338;27;19919;-56
2021/12/01 11:45:45;;;;;;;7.72;1.40;;;9.50;99.90;;;;;;5128399;27;20320;-56
2021/12/01 11:48:14;;;;;;;6.78;0.75;;;9.60;99.90;;;;;;5131866;27;20035;-55
2021/12/01 11:50:54;;;;;;;5.38;0.63;;;9.70;99.90;;;;;;5132614;27;20110;-56
2021/12/01 11:54:00;;;;;;;11.57;0.98;;;9.70;99.90;;;;;;5132013;27;20225;-54
2021/12/01 11:56:32;;;;;;;13.43;2.30;;;9.60;99.90;;;;;;5117501;27;20042;-55
2021/12/01 11:59:18;;;;;;;13.20;1.48;;;9.60;99.90;;;;;;5131330;27;20496;-54
2021/12/01 12:01:51;;;;;;;15.80;2.67;;;9.50;99.90;;;;;;5132138;27;20432;-55
2021/12/01 12:04:24;;;;;;;14.23;1.83;;;9.50;99.90;;;;;;5131093;27;20046;-56
2021/12/01 12:07:04;;;;;;;17.65;1.88;;;9.60;99.90;;;;;;5127260;27;20035;-56
2021/12/01 12:09:31;;;;;;;12.63;1.38;;;9.80;99.90;;;;;;5131262;27;20572;-56
2021/12/01 12:12:10;;;;;;;13.40;1.13;;;9.80;99.90;;;;;;5131019;27;20062;-54
2021/12/01 12:14:36;;;;;;;8.38;1.52;;;9.70;99.90;;;;;;5130571;27;20411;-56
2021/12/01 12:17:12;;;;;;;16.37;2.10;;;9.70;99.90;;;;;;5131263;27;20035;-55
2021/12/01 12:19:49;;;;;;;22.52;3.22;;;9.60;99.90;;;;;;5128912;27;20120;-56
2021/12/01 12:22:44;;;;;;;9.60;1.58;;;9.60;99.90;;;;;;5128970;27;20059;-54
2021/12/01 12:25:29;;;;;;;10.25;2.13;;;9.60;99.90;;;;;;5131008;27;20043;-56
2021/12/01 12:27:54;;;;;;;13.10;1.20;;;9.50;99.90;;;;;;5127475;27;20035;-55
2021/12/01 12:30:29;;;;;;;11.83;1.23;;;9.40;99.90;;;;;;5119988;27;20130;-55
2021/12/01 12:33:43;;;;;;;13.02;1.83;;;9.30;99.90;;;;;;5126743;27;20063;-56
2021/12/01 12:36:10;;;;;;;14.73;1.75;;;9.30;99.90;;;;;;5113435;27;20047;-57
2021/12/01 12:38:38;;;;;;;10.00;1.33;;;9.20;99.90;;;;;;5131599;27;20035;-55
2021/12/01 12:41:12;;;;;;;14.48;1.95;;;9.20;99.90;;;;;;5131687;27;20281;-56
2021/12/01 12:43:44;;;;;;;12.32;1.50;;;9.20;99.90;;;;;;5128071;27;20023;-56
2021/12/01 12:46:16;;;;;;;22.90;2.17;;;9.10;99.90;;;;;;5124509;27;20114;-56
2021/12/01 12:48:50;;;;;;;11.98;1.35;;;9.10;99.90;;;;;;5131159;27;20042;-55
2021/12/01 12:51:21;;;;;;;10.93;1.13;;;9.10;99.90;;;;;;5131816;27;20062;-54
2021/12/01 12:54:03;;;;;;;13.30;1.65;;;9.00;99.90;;;;;;5130474;27;20566;-56
2021/12/01 12:56:41;;;;;;;13.32;3.05;;;9.00;99.90;;;;;;5132011;27;20450;-56
2021/12/01 12:59:26;;;;;;;8.25;1.55;;;9.00;99.90;;;;;;5131623;27;20035;-56
2021/12/01 13:02:02;;;;;;;17.75;1.50;;;8.90;99.90;;;;;;5131602;27;20578;-56
2021/12/01 13:04:50;;;;;;;14.82;1.80;;;8.90;99.90;;;;;;5130833;27;20043;-56
2021/12/01 13:07:45;;;;;;;6.57;1.40;;;8.90;99.90;;;;;;5125063;27;20039;-56
2021/12/01 13:10:17;;;;;;;15.13;1.30;;;8.80;99.90;;;;;;5123113;27;20054;-56